MSC Gina — 3FLY9 — position and weather

sailwx.info

Track history (hours):
 
Tides and Currents Weather Stations Pressure Air Temp Water Temp Dewpoint Dewpoint Depression Visibility Wind Speed Wind Dir Waves Ship Positions

MSC Gina

Last reported at 2017-Aug-16 18:07 UTC. Time now 2017-Aug-18 05:03 UTC.
Position N 31°42' E 032°33'.

Length 259 m; draft 12.8 m.

Type: Cargo ship. MMSI: 357542000.

Date/timePositionNaut miles runAvg speedWind from/ knotsBaromVisibWave heightAir tempDewpointWater temp
2017-Aug-16 18:07N 31°42' E 032°33'3 7.6
2017-Aug-16 17:46N 31°43' E 032°35'2 7.7
2017-Aug-16 17:31N 31°45' E 032°36'9 7.6
2017-Aug-16 16:20N 31°53' E 032°40'3 8.0
2017-Aug-16 15:56N 31°56' E 032°42'410.0
2017-Aug-16 15:30N 31°60' E 032°44'510.2
2017-Aug-16 15:00N 32°04' E 032°47'510.2
2017-Aug-16 14:31N 32°09' E 032°49'510.1
2017-Aug-16 14:00N 32°14' E 032°52'510.0
2017-Aug-16 13:30N 32°18' E 032°54'2010.0
2017-Aug-16 11:31N 32°36' E 033°04'0 9.6
2017-Aug-16 11:30N 32°36' E 033°05'5 9.8
2017-Aug-16 11:01N 32°41' E 033°07'7 9.8
2017-Aug-16 10:20N 32°46' E 033°11'4 9.8
2017-Aug-16 09:55N 32°50' E 033°13'4 9.9
2017-Aug-16 09:31N 32°53' E 033°16'1010.1
2017-Aug-16 08:31N 33°02' E 033°22'010.6
2017-Aug-16 08:31N 33°02' E 033°22'510.1
2017-Aug-16 08:01N 33°07' E 033°25'510.3
2017-Aug-16 07:31N 33°11' E 033°28'612.4
2017-Aug-16 07:01N 33°16' E 033°32'612.4
2017-Aug-16 06:31N 33°22' E 033°35'612.3
2017-Aug-16 06:00N 33°27' E 033°39'612.3
2017-Aug-16 05:30N 33°33' E 033°42'612.3
2017-Aug-16 05:00N 33°38' E 033°46'612.0
2017-Aug-16 04:31N 33°43' E 033°49'612.2
2017-Aug-16 04:01N 33°49' E 033°53'612.2
2017-Aug-16 03:31N 33°54' E 033°56'612.2
2017-Aug-16 03:00N 33°60' E 033°60'612.2
2017-Aug-16 02:31N 34°05' E 034°03'612.2
2017-Aug-16 01:59N 34°10' E 034°07'2311.9
2017-Aug-16 00:04N 34°30' E 034°22'111.9
2017-Aug-16 00:00N 34°30' E 034°22'611.9
2017-Aug-15 23:30N 34°35' E 034°26'1011.7
2017-Aug-15 22:42N 34°43' E 034°32'511.8
2017-Aug-15 22:19N 34°47' E 034°35'411.8
2017-Aug-15 22:01N 34°50' E 034°37'611.8
2017-Aug-15 21:31N 34°55' E 034°41'712.0
2017-Aug-15 20:57N 35°01' E 034°45'811.9
2017-Aug-15 20:14N 35°08' E 034°51'1 3.1
2017-Aug-15 19:56N 35°09' E 034°51'0 0.4
2017-Aug-15 19:26N 35°09' E 034°51'0 0.5
2017-Aug-15 18:56N 35°09' E 034°51'0 0.4
2017-Aug-15 18:23N 35°09' E 034°51'0 0.2
2017-Aug-15 17:56N 35°09' E 034°51'0 0.2
2017-Aug-15 17:26N 35°09' E 034°51'5 4.4
2017-Aug-15 16:12N 35°14' E 034°53'211.4
2017-Aug-15 16:01N 35°16' E 034°54'22 9.7
2017-Aug-15 13:43N 35°36' E 035°05'  
2017-Aug-13 09:23N 37°25' E 023°55'719.6
2017-Aug-13 09:00N 37°31' E 023°49'1019.4
2017-Aug-13 08:30N 37°40' E 023°43'1019.5
2017-Aug-13 08:00N 37°48' E 023°37'815.4
2017-Aug-13 07:30N 37°56' E 023°35'2 3.8
2017-Aug-13 07:01N 37°57' E 023°36'0 0.1
2017-Aug-13 06:31N 37°57' E 023°36'0 0.0
2017-Aug-13 06:01N 37°57' E 023°36'0 0.0
2017-Aug-13 05:31N 37°57' E 023°36'0 0.0
2017-Aug-13 05:01N 37°57' E 023°36'0 0.0
2017-Aug-13 04:31N 37°57' E 023°36'0 0.0
2017-Aug-13 04:01N 37°57' E 023°36'0 0.0
2017-Aug-13 03:31N 37°57' E 023°36'0 0.0
2017-Aug-13 03:01N 37°57' E 023°36'0 0.0
2017-Aug-13 02:31N 37°57' E 023°36'0 0.0
2017-Aug-13 02:01N 37°57' E 023°36'0 0.0
2017-Aug-13 01:31N 37°57' E 023°36'0 0.0
2017-Aug-13 01:01N 37°57' E 023°36'0 0.0
2017-Aug-13 00:31N 37°57' E 023°36'0 0.0
2017-Aug-13 00:01N 37°57' E 023°36'0 0.0
2017-Aug-12 23:31N 37°57' E 023°36'0 0.0
2017-Aug-12 23:01N 37°57' E 023°36'0 0.0
2017-Aug-12 22:30N 37°57' E 023°36'0 0.0
2017-Aug-12 22:01N 37°57' E 023°36'0 0.0
2017-Aug-12 21:31N 37°57' E 023°36'0 0.0
2017-Aug-12 21:00N 37°57' E 023°36'0 0.0
2017-Aug-12 20:30N 37°57' E 023°36'0 0.0
2017-Aug-12 20:00N 37°57' E 023°36'0 0.0
2017-Aug-12 19:30N 37°57' E 023°36'0 0.0
2017-Aug-12 19:01N 37°57' E 023°36'0 0.0
2017-Aug-12 18:30N 37°57' E 023°36'0 0.0
2017-Aug-12 18:00N 37°57' E 023°36'0 0.0
2017-Aug-12 17:30N 37°57' E 023°36'0 0.0
2017-Aug-12 17:00N 37°57' E 023°36'0 0.0
2017-Aug-12 16:30N 37°57' E 023°36'0 0.0
2017-Aug-12 16:01N 37°57' E 023°36'0 0.0
2017-Aug-12 15:30N 37°57' E 023°36'0 0.0
2017-Aug-12 15:00N 37°57' E 023°36'0 0.0
2017-Aug-12 14:30N 37°57' E 023°36'0 0.0
2017-Aug-12 14:00N 37°57' E 023°36'0 0.0
2017-Aug-12 13:30N 37°57' E 023°36'0 0.0
2017-Aug-12 13:00N 37°57' E 023°36'0 0.0
2017-Aug-12 12:30N 37°57' E 023°36'0 0.0
2017-Aug-12 12:00N 37°57' E 023°36'0 0.0
2017-Aug-12 11:30N 37°57' E 023°36'2 4.4
2017-Aug-12 11:00N 37°55' E 023°37'5 9.2
2017-Aug-12 10:30N 37°51' E 023°40'611.9
2017-Aug-12 10:00N 37°46' E 023°43'612.4
2017-Aug-12 09:30N 37°40' E 023°46'918.9
2017-Aug-12 09:00N 37°36' E 023°57'1317.9
2017-Aug-12 08:18N 37°40' E 024°12'719.5
2017-Aug-12 07:55N 37°45' E 024°18'1819.5
2017-Aug-12 07:01N 37°56' E 024°36'020.4
2017-Aug-12 07:00N 37°57' E 024°36'1620.2
2017-Aug-12 06:12N 38°12' E 024°43'520.9
2017-Aug-12 05:59N 38°16' E 024°45'1020.4
2017-Aug-12 05:29N 38°25' E 024°51'1320.1
2017-Aug-12 04:49N 38°37' E 024°59'720.3
2017-Aug-12 04:30N 38°43' E 025°02'1020.6
2017-Aug-12 04:00N 38°52' E 025°07'1220.7
2017-Aug-12 03:24N 39°04' E 025°14'820.8
2017-Aug-12 03:00N 39°11' E 025°18'1620.8
2017-Aug-12 02:15N 39°26' E 025°26'620.9
2017-Aug-12 01:57N 39°31' E 025°30'1120.8
2017-Aug-12 01:26N 39°41' E 025°35'1021.2
2017-Aug-12 00:58N 39°50' E 025°41'2320.0
2017-Aug-11 23:48N 40°01' E 026°07'  
2017-Aug-07 19:56N 40°56' E 028°40'1 1.7
2017-Aug-07 19:16N 40°56' E 028°42'2 6.1
2017-Aug-07 18:58N 40°55' E 028°44'710.2
2017-Aug-07 18:19N 40°56' E 028°52'3 8.0
2017-Aug-07 17:58N 40°57' E 028°56'4 8.7
2017-Aug-07 17:28N 41°00' E 028°60'  
Track history (hours):
 
Tides and Currents Weather Stations Pressure Air Temp Water Temp Dewpoint Dewpoint Depression Visibility Wind Speed Wind Dir Waves Ship Positions

MSC Gina

Last reported at 2017-Aug-16 18:07 UTC. Time now 2017-Aug-18 05:03 UTC.
Position N 31°42' E 032°33'.

Length 259 m; draft 12.8 m.

Type: Cargo ship. MMSI: 357542000.

Date/timePositionNaut miles runAvg speedWind from/ knotsBaromVisibWave heightAir tempDewpointWater temp
2017-Aug-16 18:07N 31°42' E 032°33'3 7.6
2017-Aug-16 17:46N 31°43' E 032°35'2 7.7
2017-Aug-16 17:31N 31°45' E 032°36'9 7.6
2017-Aug-16 16:20N 31°53' E 032°40'3 8.0
2017-Aug-16 15:56N 31°56' E 032°42'410.0
2017-Aug-16 15:30N 31°60' E 032°44'510.2
2017-Aug-16 15:00N 32°04' E 032°47'510.2
2017-Aug-16 14:31N 32°09' E 032°49'510.1
2017-Aug-16 14:00N 32°14' E 032°52'510.0
2017-Aug-16 13:30N 32°18' E 032°54'2010.0
2017-Aug-16 11:31N 32°36' E 033°04'0 9.6
2017-Aug-16 11:30N 32°36' E 033°05'5 9.8
2017-Aug-16 11:01N 32°41' E 033°07'7 9.8
2017-Aug-16 10:20N 32°46' E 033°11'4 9.8
2017-Aug-16 09:55N 32°50' E 033°13'4 9.9
2017-Aug-16 09:31N 32°53' E 033°16'1010.1
2017-Aug-16 08:31N 33°02' E 033°22'010.6
2017-Aug-16 08:31N 33°02' E 033°22'510.1
2017-Aug-16 08:01N 33°07' E 033°25'510.3
2017-Aug-16 07:31N 33°11' E 033°28'612.4
2017-Aug-16 07:01N 33°16' E 033°32'612.4
2017-Aug-16 06:31N 33°22' E 033°35'612.3
2017-Aug-16 06:00N 33°27' E 033°39'612.3
2017-Aug-16 05:30N 33°33' E 033°42'612.3
2017-Aug-16 05:00N 33°38' E 033°46'612.0
2017-Aug-16 04:31N 33°43' E 033°49'612.2
2017-Aug-16 04:01N 33°49' E 033°53'612.2
2017-Aug-16 03:31N 33°54' E 033°56'612.2
2017-Aug-16 03:00N 33°60' E 033°60'612.2
2017-Aug-16 02:31N 34°05' E 034°03'612.2
2017-Aug-16 01:59N 34°10' E 034°07'2311.9
2017-Aug-16 00:04N 34°30' E 034°22'111.9
2017-Aug-16 00:00N 34°30' E 034°22'611.9
2017-Aug-15 23:30N 34°35' E 034°26'1011.7
2017-Aug-15 22:42N 34°43' E 034°32'511.8
2017-Aug-15 22:19N 34°47' E 034°35'411.8
2017-Aug-15 22:01N 34°50' E 034°37'611.8
2017-Aug-15 21:31N 34°55' E 034°41'712.0
2017-Aug-15 20:57N 35°01' E 034°45'811.9
2017-Aug-15 20:14N 35°08' E 034°51'1 3.1
2017-Aug-15 19:56N 35°09' E 034°51'0 0.4
2017-Aug-15 19:26N 35°09' E 034°51'0 0.5
2017-Aug-15 18:56N 35°09' E 034°51'0 0.4
2017-Aug-15 18:23N 35°09' E 034°51'0 0.2
2017-Aug-15 17:56N 35°09' E 034°51'0 0.2
2017-Aug-15 17:26N 35°09' E 034°51'5 4.4
2017-Aug-15 16:12N 35°14' E 034°53'211.4
2017-Aug-15 16:01N 35°16' E 034°54'22 9.7
2017-Aug-15 13:43N 35°36' E 035°05'  
2017-Aug-13 09:23N 37°25' E 023°55'719.6
2017-Aug-13 09:00N 37°31' E 023°49'1019.4
2017-Aug-13 08:30N 37°40' E 023°43'1019.5
2017-Aug-13 08:00N 37°48' E 023°37'815.4
2017-Aug-13 07:30N 37°56' E 023°35'2 3.8
2017-Aug-13 07:01N 37°57' E 023°36'0 0.1
2017-Aug-13 06:31N 37°57' E 023°36'0 0.0
2017-Aug-13 06:01N 37°57' E 023°36'0 0.0
2017-Aug-13 05:31N 37°57' E 023°36'0 0.0
2017-Aug-13 05:01N 37°57' E 023°36'0 0.0
2017-Aug-13 04:31N 37°57' E 023°36'0 0.0
2017-Aug-13 04:01N 37°57' E 023°36'0 0.0
2017-Aug-13 03:31N 37°57' E 023°36'0 0.0
2017-Aug-13 03:01N 37°57' E 023°36'0 0.0
2017-Aug-13 02:31N 37°57' E 023°36'0 0.0
2017-Aug-13 02:01N 37°57' E 023°36'0 0.0
2017-Aug-13 01:31N 37°57' E 023°36'0 0.0
2017-Aug-13 01:01N 37°57' E 023°36'0 0.0
2017-Aug-13 00:31N 37°57' E 023°36'0 0.0
2017-Aug-13 00:01N 37°57' E 023°36'0 0.0
2017-Aug-12 23:31N 37°57' E 023°36'0 0.0
2017-Aug-12 23:01N 37°57' E 023°36'0 0.0
2017-Aug-12 22:30N 37°57' E 023°36'0 0.0
2017-Aug-12 22:01N 37°57' E 023°36'0 0.0
2017-Aug-12 21:31N 37°57' E 023°36'0 0.0
2017-Aug-12 21:00N 37°57' E 023°36'0 0.0
2017-Aug-12 20:30N 37°57' E 023°36'0 0.0
2017-Aug-12 20:00N 37°57' E 023°36'0 0.0
2017-Aug-12 19:30N 37°57' E 023°36'0 0.0
2017-Aug-12 19:01N 37°57' E 023°36'0 0.0
2017-Aug-12 18:30N 37°57' E 023°36'0 0.0
2017-Aug-12 18:00N 37°57' E 023°36'0 0.0
2017-Aug-12 17:30N 37°57' E 023°36'0 0.0
2017-Aug-12 17:00N 37°57' E 023°36'0 0.0
2017-Aug-12 16:30N 37°57' E 023°36'0 0.0
2017-Aug-12 16:01N 37°57' E 023°36'0 0.0
2017-Aug-12 15:30N 37°57' E 023°36'0 0.0
2017-Aug-12 15:00N 37°57' E 023°36'0 0.0
2017-Aug-12 14:30N 37°57' E 023°36'0 0.0
2017-Aug-12 14:00N 37°57' E 023°36'0 0.0
2017-Aug-12 13:30N 37°57' E 023°36'0 0.0
2017-Aug-12 13:00N 37°57' E 023°36'0 0.0
2017-Aug-12 12:30N 37°57' E 023°36'0 0.0
2017-Aug-12 12:00N 37°57' E 023°36'0 0.0
2017-Aug-12 11:30N 37°57' E 023°36'2 4.4
2017-Aug-12 11:00N 37°55' E 023°37'5 9.2
2017-Aug-12 10:30N 37°51' E 023°40'611.9
2017-Aug-12 10:00N 37°46' E 023°43'612.4
2017-Aug-12 09:30N 37°40' E 023°46'918.9
2017-Aug-12 09:00N 37°36' E 023°57'1317.9
2017-Aug-12 08:18N 37°40' E 024°12'719.5
2017-Aug-12 07:55N 37°45' E 024°18'1819.5
2017-Aug-12 07:01N 37°56' E 024°36'020.4
2017-Aug-12 07:00N 37°57' E 024°36'1620.2
2017-Aug-12 06:12N 38°12' E 024°43'520.9
2017-Aug-12 05:59N 38°16' E 024°45'1020.4
2017-Aug-12 05:29N 38°25' E 024°51'1320.1
2017-Aug-12 04:49N 38°37' E 024°59'720.3
2017-Aug-12 04:30N 38°43' E 025°02'1020.6
2017-Aug-12 04:00N 38°52' E 025°07'1220.7
2017-Aug-12 03:24N 39°04' E 025°14'820.8
2017-Aug-12 03:00N 39°11' E 025°18'1620.8
2017-Aug-12 02:15N 39°26' E 025°26'620.9
2017-Aug-12 01:57N 39°31' E 025°30'1120.8
2017-Aug-12 01:26N 39°41' E 025°35'1021.2
2017-Aug-12 00:58N 39°50' E 025°41'2320.0
2017-Aug-11 23:48N 40°01' E 026°07'  
2017-Aug-07 19:56N 40°56' E 028°40'1 1.7
2017-Aug-07 19:16N 40°56' E 028°42'2 6.1
2017-Aug-07 18:58N 40°55' E 028°44'710.2
2017-Aug-07 18:19N 40°56' E 028°52'3 8.0
2017-Aug-07 17:58N 40°57' E 028°56'4 8.7
2017-Aug-07 17:28N 41°00' E 028°60'  

Dump ship's entire track history